Time;durP1;ratioP1;P1;durP2;ratioP2;P2;SDS_P1;SDS_P2;PMS_P1;PMS_P2;Temp;Humidity;BMP_temperature;BMP_pressure;BME280_temperature;BME280_humidity;BME280_pressure;Samples;Min_cycle;Max_cycle;Signal;HPM_P1;HPM_P2
2022/05/02 00:01:54;;;;;;;;;9.50;7.25;;;;;;;;5101997;27;61849;-74
2022/05/02 00:04:19;;;;;;;;;9.00;5.75;;;;;;;;5102260;27;61966;-74
2022/05/02 00:06:45;;;;;;;;;13.25;4.50;;;;;;;;5101605;27;61832;-74
2022/05/02 00:09:10;;;;;;;;;7.75;6.25;;;;;;;;5101826;27;61774;-74
2022/05/02 00:11:35;;;;;;;;;7.25;4.00;;;;;;;;5102859;27;61848;-74
2022/05/02 00:14:00;;;;;;;;;7.00;6.00;;;;;;;;5106115;27;61701;-74
2022/05/02 00:16:26;;;;;;;;;11.00;5.50;;;;;;;;5104411;27;61844;-74
2022/05/02 00:18:51;;;;;;;;;7.50;5.00;;;;;;;;5105371;27;62134;-74
2022/05/02 00:21:16;;;;;;;;;6.25;6.25;;;;;;;;5105691;27;61720;-74
2022/05/02 00:23:42;;;;;;;;;7.75;5.50;;;;;;;;5105872;27;61706;-74
2022/05/02 00:26:07;;;;;;;;;4.75;4.75;;;;;;;;5104842;27;62789;-74
2022/05/02 00:28:33;;;;;;;;;6.00;6.00;;;;;;;;5105485;27;61650;-74
2022/05/02 00:30:58;;;;;;;;;8.50;4.75;;;;;;;;5105172;27;61734;-74
2022/05/02 00:33:25;;;;;;;;;5.50;5.50;;;;;;;;5105264;27;61734;-75
2022/05/02 00:35:50;;;;;;;;;7.25;6.00;;;;;;;;5104894;27;62522;-74
2022/05/02 00:38:15;;;;;;;;;8.00;8.00;;;;;;;;5104834;27;61890;-74
2022/05/02 00:40:41;;;;;;;;;5.75;5.75;;;;;;;;5104093;27;61810;-74
2022/05/02 00:43:06;;;;;;;;;10.75;7.00;;;;;;;;5105485;27;61801;-74
2022/05/02 00:45:35;;;;;;;;;9.00;6.00;;;;;;;;5104093;27;62876;-74
2022/05/02 00:48:00;;;;;;;;;9.50;6.00;;;;;;;;5104791;27;62532;-74
2022/05/02 00:50:26;;;;;;;;;7.25;7.25;;;;;;;;5105258;27;61885;-74
2022/05/02 00:52:51;;;;;;;;;11.00;8.00;;;;;;;;5105240;27;61885;-74
2022/05/02 00:55:16;;;;;;;;;8.00;7.00;;;;;;;;5104754;27;61906;-74
2022/05/02 00:57:42;;;;;;;;;9.75;8.00;;;;;;;;5104938;27;62066;-74
2022/05/02 01:00:07;;;;;;;;;8.50;5.25;;;;;;;;5104889;27;61724;-74
2022/05/02 01:02:33;;;;;;;;;11.50;9.00;;;;;;;;5104772;27;61884;-74
2022/05/02 01:04:58;;;;;;;;;8.00;7.75;;;;;;;;5104282;27;61749;-74
2022/05/02 01:07:23;;;;;;;;;6.75;6.75;;;;;;;;5104768;27;61806;-74
2022/05/02 01:09:50;;;;;;;;;6.75;5.50;;;;;;;;5104703;27;61782;-74
2022/05/02 01:12:15;;;;;;;;;7.25;7.25;;;;;;;;5104956;27;61726;-74
2022/05/02 01:14:42;;;;;;;;;12.25;8.00;;;;;;;;5103574;27;62576;-74
2022/05/02 01:17:08;;;;;;;;;7.50;7.00;;;;;;;;5103194;27;61794;-74
2022/05/02 01:19:33;;;;;;;;;12.25;8.50;;;;;;;;5104578;27;61760;-74
2022/05/02 01:21:59;;;;;;;;;8.00;8.00;;;;;;;;5105028;27;61795;-74
2022/05/02 01:24:34;;;;;;;;;7.00;7.00;;;;;;;;5103849;27;61928;-74
2022/05/02 01:27:00;;;;;;;;;13.75;8.25;;;;;;;;5104784;27;62042;-74
2022/05/02 01:29:25;;;;;;;;;8.75;8.75;;;;;;;;5104127;27;61866;-74
2022/05/02 01:31:52;;;;;;;;;12.50;9.25;;;;;;;;5104663;27;61898;-74
2022/05/02 01:34:17;;;;;;;;;11.25;7.50;;;;;;;;5103763;27;61894;-74
2022/05/02 01:36:44;;;;;;;;;9.75;7.75;;;;;;;;5102851;27;61903;-74
2022/05/02 01:39:09;;;;;;;;;12.75;8.00;;;;;;;;5104117;27;61755;-74
2022/05/02 01:41:35;;;;;;;;;11.25;8.00;;;;;;;;5104494;27;61714;-74
2022/05/02 01:44:00;;;;;;;;;9.25;8.00;;;;;;;;5103489;27;61925;-74
2022/05/02 01:46:25;;;;;;;;;10.25;9.00;;;;;;;;5104335;27;61786;-74
2022/05/02 01:48:50;;;;;;;;;10.00;6.50;;;;;;;;5103563;27;61807;-74
2022/05/02 01:51:16;;;;;;;;;9.00;8.00;;;;;;;;5104589;27;61766;-74
2022/05/02 01:53:42;;;;;;;;;7.50;7.25;;;;;;;;5103273;27;62675;-74
2022/05/02 01:56:07;;;;;;;;;7.00;7.00;;;;;;;;5102917;27;61788;-74
2022/05/02 01:58:32;;;;;;;;;7.25;6.00;;;;;;;;5103570;27;61810;-74
2022/05/02 02:00:58;;;;;;;;;8.00;7.00;;;;;;;;5104500;27;61743;-74
2022/05/02 02:03:23;;;;;;;;;10.25;9.75;;;;;;;;5103115;27;61719;-74
2022/05/02 02:05:48;;;;;;;;;8.25;6.25;;;;;;;;5103854;27;61878;-74
2022/05/02 02:08:15;;;;;;;;;15.00;8.75;;;;;;;;5103565;27;61688;-74
2022/05/02 02:10:40;;;;;;;;;9.00;7.50;;;;;;;;5104187;27;61676;-74
2022/05/02 02:13:05;;;;;;;;;11.75;9.00;;;;;;;;5101310;27;64646;-74
2022/05/02 02:15:31;;;;;;;;;10.00;8.00;;;;;;;;5102365;27;61741;-74
2022/05/02 02:17:56;;;;;;;;;15.50;10.00;;;;;;;;5103535;27;61663;-74
2022/05/02 02:20:22;;;;;;;;;8.00;6.00;;;;;;;;5104154;27;61693;-74
2022/05/02 02:22:47;;;;;;;;;10.50;6.25;;;;;;;;5102899;27;62321;-74
2022/05/02 02:25:12;;;;;;;;;10.00;8.00;;;;;;;;5103589;27;61929;-74
2022/05/02 02:27:38;;;;;;;;;14.25;8.00;;;;;;;;5103307;27;62032;-74
2022/05/02 02:30:03;;;;;;;;;7.50;7.50;;;;;;;;5103997;27;61819;-74
2022/05/02 02:32:29;;;;;;;;;10.75;9.25;;;;;;;;5102763;27;61751;-74
2022/05/02 02:34:54;;;;;;;;;9.00;9.00;;;;;;;;5102503;27;61894;-74
2022/05/02 02:37:19;;;;;;;;;11.25;6.50;;;;;;;;5102286;27;61688;-74
2022/05/02 02:39:45;;;;;;;;;11.50;9.00;;;;;;;;5103318;27;61659;-74
2022/05/02 02:42:10;;;;;;;;;1.75;1.00;;;;;;;;5102662;27;61782;-74
2022/05/02 02:44:36;;;;;;;;;12.75;6.75;;;;;;;;5101865;27;61831;-74
2022/05/02 02:47:01;;;;;;;;;8.50;8.50;;;;;;;;5102953;27;61782;-74
2022/05/02 02:49:27;;;;;;;;;6.75;6.75;;;;;;;;5103316;27;61962;-74
2022/05/02 02:51:52;;;;;;;;;13.25;10.00;;;;;;;;5102661;27;62813;-74
2022/05/02 02:54:17;;;;;;;;;10.50;7.50;;;;;;;;5103036;27;61754;-74
2022/05/02 02:56:43;;;;;;;;;9.75;7.25;;;;;;;;5102853;27;61738;-74
2022/05/02 02:59:08;;;;;;;;;13.00;11.75;;;;;;;;5103607;27;61815;-74
2022/05/02 03:01:33;;;;;;;;;9.50;9.25;;;;;;;;5102550;27;61775;-74
2022/05/02 03:03:59;;;;;;;;;12.00;9.25;;;;;;;;5102247;27;61999;-74
2022/05/02 03:06:24;;;;;;;;;14.25;11.50;;;;;;;;5103347;27;61818;-74
2022/05/02 03:08:50;;;;;;;;;11.75;11.00;;;;;;;;5102622;27;61965;-74
2022/05/02 03:11:15;;;;;;;;;12.50;8.00;;;;;;;;5102111;27;63272;-74
2022/05/02 03:13:41;;;;;;;;;15.75;11.50;;;;;;;;5103019;27;61954;-74
2022/05/02 03:16:06;;;;;;;;;16.75;12.50;;;;;;;;5102665;27;61779;-74
2022/05/02 03:18:31;;;;;;;;;14.75;11.25;;;;;;;;5102906;27;61699;-74
2022/05/02 03:20:57;;;;;;;;;19.25;10.75;;;;;;;;5100773;27;63392;-74
2022/05/02 03:23:23;;;;;;;;;12.00;11.00;;;;;;;;5102824;27;61703;-74
2022/05/02 03:25:48;;;;;;;;;15.50;10.00;;;;;;;;5102389;27;61807;-74
2022/05/02 03:28:13;;;;;;;;;17.25;9.75;;;;;;;;5103102;27;61695;-74
2022/05/02 03:30:39;;;;;;;;;12.75;10.00;;;;;;;;5100889;27;61951;-74
2022/05/02 03:33:04;;;;;;;;;15.00;11.75;;;;;;;;5102174;27;61948;-74
2022/05/02 03:35:29;;;;;;;;;13.25;8.50;;;;;;;;5102555;27;61715;-74
2022/05/02 03:37:55;;;;;;;;;15.75;12.25;;;;;;;;5102564;27;61814;-74
2022/05/02 03:40:20;;;;;;;;;15.75;9.00;;;;;;;;5101817;27;62602;-74
2022/05/02 03:42:45;;;;;;;;;17.25;11.75;;;;;;;;5102479;27;61857;-74
2022/05/02 03:45:11;;;;;;;;;16.00;12.00;;;;;;;;5102358;27;61785;-74
2022/05/02 03:47:36;;;;;;;;;13.75;9.50;;;;;;;;5104046;27;61865;-74
2022/05/02 03:50:01;;;;;;;;;12.25;10.75;;;;;;;;5105666;27;62011;-74
2022/05/02 03:52:27;;;;;;;;;15.25;11.00;;;;;;;;5106157;27;61917;-74
2022/05/02 03:54:52;;;;;;;;;18.75;14.75;;;;;;;;5105393;27;61919;-74
2022/05/02 03:57:18;;;;;;;;;16.00;10.75;;;;;;;;5106186;27;61961;-74
2022/05/02 03:59:43;;;;;;;;;21.00;12.00;;;;;;;;5105467;27;62614;-74
2022/05/02 04:02:08;;;;;;;;;20.00;11.50;;;;;;;;5105710;27;61700;-74
2022/05/02 04:04:33;;;;;;;;;14.00;12.25;;;;;;;;5105860;27;61889;-74
2022/05/02 04:06:59;;;;;;;;;12.00;9.00;;;;;;;;5105866;27;61755;-74
2022/05/02 04:09:24;;;;;;;;;11.00;9.25;;;;;;;;5104411;27;61802;-74
2022/05/02 04:11:49;;;;;;;;;12.75;9.00;;;;;;;;5106045;27;61893;-74
2022/05/02 04:14:15;;;;;;;;;13.75;12.00;;;;;;;;5105717;27;62162;-74
2022/05/02 04:16:40;;;;;;;;;12.25;10.00;;;;;;;;5105983;27;61959;-74
2022/05/02 04:19:05;;;;;;;;;7.50;6.25;;;;;;;;5104995;27;61824;-74
2022/05/02 04:21:30;;;;;;;;;11.50;8.00;;;;;;;;5105692;27;61726;-74
2022/05/02 04:23:56;;;;;;;;;9.25;8.25;;;;;;;;5105412;27;61855;-74
2022/05/02 04:26:22;;;;;;;;;10.00;9.00;;;;;;;;5105969;27;61702;-74
2022/05/02 04:28:47;;;;;;;;;10.00;8.50;;;;;;;;5105161;27;61895;-74
2022/05/02 04:31:12;;;;;;;;;14.75;10.00;;;;;;;;5103843;27;61758;-74
2022/05/02 04:33:39;;;;;;;;;17.00;12.00;;;;;;;;5105006;27;61877;-74
2022/05/02 04:36:05;;;;;;;;;11.25;8.50;;;;;;;;5104318;27;61766;-74
2022/05/02 04:38:30;;;;;;;;;13.50;11.00;;;;;;;;5104167;27;62662;-74
2022/05/02 04:40:56;;;;;;;;;14.75;12.25;;;;;;;;5105312;27;61967;-74
2022/05/02 04:43:22;;;;;;;;;10.50;9.50;;;;;;;;5105877;27;61990;-73
2022/05/02 04:45:47;;;;;;;;;13.00;11.25;;;;;;;;5106441;27;61981;-74
2022/05/02 04:48:12;;;;;;;;;17.25;12.00;;;;;;;;5104118;27;61821;-74
2022/05/02 04:50:37;;;;;;;;;12.00;9.75;;;;;;;;5105309;27;61847;-74
2022/05/02 04:53:03;;;;;;;;;19.75;14.00;;;;;;;;5104716;27;61925;-74
2022/05/02 04:55:28;;;;;;;;;16.00;10.00;;;;;;;;5105235;27;61769;-74
2022/05/02 04:57:53;;;;;;;;;17.00;9.50;;;;;;;;5104236;27;61918;-74
2022/05/02 05:00:19;;;;;;;;;15.25;12.75;;;;;;;;5103569;27;62018;-74
2022/05/02 05:02:44;;;;;;;;;15.75;13.50;;;;;;;;5104965;27;62023;-74
2022/05/02 05:05:09;;;;;;;;;15.00;11.50;;;;;;;;5103357;27;61927;-74
2022/05/02 05:07:38;;;;;;;;;18.75;15.25;;;;;;;;5104095;27;61786;-74
2022/05/02 05:10:05;;;;;;;;;16.00;12.50;;;;;;;;5104620;27;61933;-76
2022/05/02 05:12:36;;;;;;;;;21.00;17.75;;;;;;;;5104849;27;61985;-74
2022/05/02 05:17:59;;;;;;;;;18.50;16.00;;;;;;;;5104061;27;62420;-74
2022/05/02 05:20:42;;;;;;;;;20.25;11.75;;;;;;;;5102779;27;61827;-74
2022/05/02 05:23:27;;;;;;;;;18.50;11.25;;;;;;;;5103271;27;61976;-74
2022/05/02 05:25:52;;;;;;;;;17.00;15.25;;;;;;;;5104922;27;61886;-74
2022/05/02 05:28:37;;;;;;;;;18.00;14.75;;;;;;;;5104087;27;62038;-74
2022/05/02 05:31:10;;;;;;;;;22.75;12.75;;;;;;;;5104579;27;61900;-74
2022/05/02 05:33:44;;;;;;;;;18.75;13.00;;;;;;;;5104083;27;61750;-74
2022/05/02 05:36:25;;;;;;;;;18.50;16.75;;;;;;;;5102949;27;61823;-74
2022/05/02 05:38:51;;;;;;;;;19.00;17.25;;;;;;;;5102731;27;62065;-74
2022/05/02 05:41:26;;;;;;;;;20.25;16.75;;;;;;;;5104241;27;61920;-74
2022/05/02 05:44:03;;;;;;;;;21.25;17.00;;;;;;;;5104494;27;61933;-74
2022/05/02 05:46:34;;;;;;;;;23.75;18.50;;;;;;;;5103065;27;61975;-74
2022/05/02 05:49:00;;;;;;;;;24.00;16.75;;;;;;;;5103178;27;61864;-74
2022/05/02 05:51:33;;;;;;;;;17.00;14.50;;;;;;;;5103823;27;62096;-74
2022/05/02 05:54:17;;;;;;;;;24.25;17.75;;;;;;;;5104134;27;61830;-73
2022/05/02 05:56:57;;;;;;;;;23.75;17.50;;;;;;;;5104091;27;61784;-73
2022/05/02 05:59:25;;;;;;;;;27.75;18.50;;;;;;;;5103612;27;62053;-76
2022/05/02 06:01:50;;;;;;;;;27.75;21.25;;;;;;;;5104029;27;61926;-73
2022/05/02 06:04:16;;;;;;;;;22.25;19.00;;;;;;;;5102973;27;61874;-76
2022/05/02 06:06:41;;;;;;;;;24.25;18.25;;;;;;;;5104193;27;62068;-74
2022/05/02 06:09:08;;;;;;;;;23.75;17.50;;;;;;;;5102289;27;61861;-74
2022/05/02 06:11:35;;;;;;;;;26.50;21.75;;;;;;;;5103487;27;61694;-74
2022/05/02 06:14:01;;;;;;;;;23.50;20.50;;;;;;;;5104120;27;61722;-74
2022/05/02 06:19:16;;;;;;;;;43.25;31.00;;;;;;;;5102295;27;62304;-74
2022/05/02 06:21:45;;;;;;;;;28.00;24.25;;;;;;;;5103578;27;61795;-74
2022/05/02 06:24:11;;;;;;;;;29.50;24.75;;;;;;;;5103770;27;61895;-75
2022/05/02 06:26:37;;;;;;;;;23.00;16.25;;;;;;;;5103982;27;61863;-74
2022/05/02 06:29:03;;;;;;;;;22.50;19.00;;;;;;;;5103154;27;62594;-74
2022/05/02 06:31:29;;;;;;;;;25.00;19.50;;;;;;;;5103134;27;61946;-74
2022/05/02 06:33:56;;;;;;;;;24.25;20.75;;;;;;;;5101535;27;61751;-74
2022/05/02 06:36:24;;;;;;;;;23.00;21.00;;;;;;;;5103712;27;61711;-74
2022/05/02 06:38:56;;;;;;;;;25.25;18.75;;;;;;;;5102531;27;62845;-74
2022/05/02 06:41:40;;;;;;;;;33.75;24.00;;;;;;;;5103651;27;61726;-74
2022/05/02 06:44:24;;;;;;;;;27.50;18.75;;;;;;;;5101855;27;61965;-74
2022/05/02 06:46:55;;;;;;;;;28.50;22.75;;;;;;;;5103480;27;61909;-74
2022/05/02 06:49:22;;;;;;;;;28.25;20.00;;;;;;;;5102219;27;61966;-74
2022/05/02 06:51:49;;;;;;;;;31.50;26.25;;;;;;;;5103276;27;61893;-75
2022/05/02 06:54:14;;;;;;;;;27.00;22.50;;;;;;;;5103164;27;61972;-74
2022/05/02 06:56:44;;;;;;;;;28.75;24.25;;;;;;;;5103314;27;62092;-74
2022/05/02 06:59:31;;;;;;;;;33.25;27.00;;;;;;;;5102623;27;61782;-75
2022/05/02 07:01:56;;;;;;;;;20.25;16.50;;;;;;;;5102922;27;61964;-74
2022/05/02 07:04:24;;;;;;;;;23.75;18.50;;;;;;;;5102742;27;61947;-75
2022/05/02 07:07:11;;;;;;;;;25.25;20.25;;;;;;;;5103351;27;61758;-75
2022/05/02 07:09:42;;;;;;;;;25.50;21.00;;;;;;;;5101652;27;62409;-74
2022/05/02 07:12:26;;;;;;;;;27.25;19.50;;;;;;;;5103279;27;61732;-75
2022/05/02 07:15:00;;;;;;;;;25.50;18.50;;;;;;;;5102951;27;61913;-74
2022/05/02 07:17:31;;;;;;;;;20.00;15.50;;;;;;;;5102442;27;61932;-74
2022/05/02 07:20:04;;;;;;;;;26.25;16.25;;;;;;;;5101066;27;63734;-75
2022/05/02 07:22:37;;;;;;;;;32.75;23.50;;;;;;;;5104515;27;61788;-74
2022/05/02 07:25:13;;;;;;;;;29.50;18.00;;;;;;;;5105106;27;61873;-74
2022/05/02 07:27:50;;;;;;;;;26.50;19.50;;;;;;;;5106727;27;61685;-74
2022/05/02 07:30:19;;;;;;;;;24.25;20.00;;;;;;;;5106022;27;62787;-74
2022/05/02 07:32:44;;;;;;;;;27.75;21.50;;;;;;;;5106044;27;61956;-74
2022/05/02 07:35:10;;;;;;;;;25.25;20.25;;;;;;;;5106144;27;62119;-74
2022/05/02 07:37:36;;;;;;;;;20.00;19.00;;;;;;;;5106468;27;61903;-73
2022/05/02 07:40:04;;;;;;;;;35.50;19.25;;;;;;;;5105545;27;61937;-74
2022/05/02 07:42:30;;;;;;;;;24.25;22.50;;;;;;;;5104899;27;61814;-74
2022/05/02 07:44:59;;;;;;;;;27.75;19.00;;;;;;;;5106246;27;61946;-74
2022/05/02 07:47:27;;;;;;;;;22.50;17.75;;;;;;;;5105690;27;61792;-74
2022/05/02 07:49:54;;;;;;;;;21.25;17.75;;;;;;;;5105479;27;61855;-74
2022/05/02 07:52:21;;;;;;;;;18.00;15.25;;;;;;;;5114158;27;62790;-74
2022/05/02 07:54:48;;;;;;;;;23.75;18.75;;;;;;;;5117940;27;61912;-74
2022/05/02 07:57:14;;;;;;;;;27.25;21.00;;;;;;;;5106011;27;61713;-74
2022/05/02 07:59:40;;;;;;;;;29.00;21.00;;;;;;;;5101698;27;62644;-74
2022/05/02 08:02:06;;;;;;;;;28.75;20.00;;;;;;;;5095761;27;61847;-74
2022/05/02 08:04:31;;;;;;;;;27.00;20.50;;;;;;;;5096990;27;61973;-74
2022/05/02 08:06:57;;;;;;;;;25.50;18.25;;;;;;;;5104405;27;62063;-74
2022/05/02 08:09:28;;;;;;;;;22.50;15.75;;;;;;;;5100720;27;61833;-74
2022/05/02 08:12:05;;;;;;;;;39.25;24.25;;;;;;;;5105026;27;61855;-74
2022/05/02 08:14:34;;;;;;;;;29.00;22.00;;;;;;;;5103533;27;62023;-75
2022/05/02 08:17:02;;;;;;;;;21.75;18.00;;;;;;;;5105120;27;61761;-75
2022/05/02 08:19:27;;;;;;;;;19.25;16.75;;;;;;;;5084224;28;62516;-75
2022/05/02 08:27:15;;;;;;;;;19.50;19.00;;;;;;;;5085026;28;61900;-75
2022/05/02 08:27:59;;;;;;;;;22.25;20.75;;;;;;;;5085288;28;61927;-75
2022/05/02 08:30:25;;;;;;;;;29.50;23.75;;;;;;;;5099687;27;63581;-75
2022/05/02 08:32:51;;;;;;;;;26.00;21.75;;;;;;;;5082557;27;61879;-74
2022/05/02 08:35:18;;;;;;;;;31.00;22.25;;;;;;;;5104402;27;61925;-75
2022/05/02 08:38:07;;;;;;;;;22.50;19.50;;;;;;;;5104232;27;61727;-74
2022/05/02 08:41:04;;;;;;;;;26.50;17.50;;;;;;;;5065906;28;61910;-75
2022/05/02 08:43:52;;;;;;;;;35.75;26.00;;;;;;;;5060513;28;61936;-74
2022/05/02 08:46:27;;;;;;;;;27.25;20.00;;;;;;;;5053072;28;61911;-75
2022/05/02 08:49:38;;;;;;;;;22.25;17.75;;;;;;;;5058862;28;61892;-75
2022/05/02 08:52:09;;;;;;;;;26.25;22.25;;;;;;;;5043529;28;63317;-75
2022/05/02 08:54:44;;;;;;;;;23.75;20.75;;;;;;;;5061144;28;61818;-75
2022/05/02 08:57:28;;;;;;;;;32.00;23.25;;;;;;;;5061409;28;62029;-75
2022/05/02 09:00:02;;;;;;;;;28.00;22.25;;;;;;;;5061170;28;61872;-75
2022/05/02 09:02:43;;;;;;;;;23.75;18.00;;;;;;;;5060832;28;62063;-74
2022/05/02 09:05:21;;;;;;;;;25.00;21.75;;;;;;;;5052605;28;61954;-74
2022/05/02 09:07:46;;;;;;;;;35.00;27.00;;;;;;;;5061570;28;61897;-74
2022/05/02 09:10:17;;;;;;;;;26.00;22.00;;;;;;;;5064050;28;61900;-74
2022/05/02 09:12:57;;;;;;;;;23.50;19.50;;;;;;;;5065407;28;61893;-75
2022/05/02 09:15:22;;;;;;;;;28.75;24.50;;;;;;;;5060104;28;61933;-75
2022/05/02 09:18:06;;;;;;;;;31.00;21.25;;;;;;;;5081184;27;61821;-75
2022/05/02 09:20:41;;;;;;;;;29.25;26.00;;;;;;;;5104452;27;61670;-75
2022/05/02 09:23:12;;;;;;;;;24.00;19.00;;;;;;;;5102452;27;62618;-75
2022/05/02 09:25:57;;;;;;;;;21.50;18.75;;;;;;;;5103052;27;61796;-74
2022/05/02 09:28:23;;;;;;;;;28.75;19.25;;;;;;;;5104215;27;61812;-75
2022/05/02 09:31:07;;;;;;;;;26.25;17.75;;;;;;;;5104248;27;61832;-75
2022/05/02 09:33:35;;;;;;;;;27.75;20.75;;;;;;;;5103332;27;62668;-74
2022/05/02 09:36:03;;;;;;;;;21.00;15.50;;;;;;;;5102638;27;61892;-74
2022/05/02 09:38:40;;;;;;;;;31.25;24.25;;;;;;;;5102559;27;61762;-74
2022/05/02 09:41:24;;;;;;;;;30.25;23.75;;;;;;;;5097781;27;61902;-74
2022/05/02 09:49:47;;;;;;;;;35.75;25.50;;;;;;;;5097423;27;62088;-75
2022/05/02 09:52:16;;;;;;;;;24.75;19.75;;;;;;;;5099956;27;61795;-75
2022/05/02 09:58:07;;;;;;;;;19.75;18.50;;;;;;;;5102730;27;61710;-75
2022/05/02 10:03:32;;;;;;;;;18.75;15.25;;;;;;;;5103426;27;61787;-75
2022/05/02 10:06:14;;;;;;;;;28.75;22.50;;;;;;;;5102765;27;62034;-74
2022/05/02 10:09:00;;;;;;;;;23.25;18.50;;;;;;;;5102760;27;61843;-75
2022/05/02 10:11:44;;;;;;;;;28.25;18.25;;;;;;;;5102564;27;61841;-75
2022/05/02 10:14:30;;;;;;;;;26.25;17.75;;;;;;;;5103483;27;62113;-75
2022/05/02 10:17:10;;;;;;;;;22.25;18.50;;;;;;;;5102785;27;61926;-75
2022/05/02 10:19:54;;;;;;;;;24.75;20.00;;;;;;;;5102777;27;61840;-74
2022/05/02 10:22:19;;;;;;;;;22.75;19.25;;;;;;;;5103291;27;61738;-75
2022/05/02 10:25:06;;;;;;;;;26.00;21.50;;;;;;;;5103011;27;61868;-75
2022/05/02 10:27:51;;;;;;;;;27.00;16.50;;;;;;;;5100611;27;64393;-75
2022/05/02 10:30:18;;;;;;;;;20.50;17.50;;;;;;;;5102860;27;61727;-75
2022/05/02 10:32:45;;;;;;;;;20.75;20.00;;;;;;;;5101308;27;62116;-75
2022/05/02 10:35:16;;;;;;;;;31.25;23.75;;;;;;;;5103208;27;62034;-75
2022/05/02 10:37:42;;;;;;;;;22.75;22.00;;;;;;;;5101961;27;61728;-75
2022/05/02 10:40:10;;;;;;;;;23.75;19.75;;;;;;;;5101550;27;62024;-75
2022/05/02 10:42:35;;;;;;;;;22.50;16.25;;;;;;;;5092365;27;61751;-75
2022/05/02 10:45:06;;;;;;;;;22.00;19.25;;;;;;;;5082882;27;61927;-75
2022/05/02 10:47:40;;;;;;;;;26.50;23.25;;;;;;;;5090055;27;61876;-75
2022/05/02 10:50:05;;;;;;;;;24.25;19.75;;;;;;;;5093161;27;61913;-75
2022/05/02 10:52:37;;;;;;;;;20.25;18.75;;;;;;;;5092562;27;61777;-75
2022/05/02 10:55:05;;;;;;;;;19.00;17.75;;;;;;;;5101333;27;61831;-75
2022/05/02 10:57:59;;;;;;;;;16.25;15.25;;;;;;;;5101591;27;62142;-75
2022/05/02 11:00:25;;;;;;;;;26.25;19.75;;;;;;;;5096895;27;62173;-75
2022/05/02 11:02:52;;;;;;;;;19.50;16.50;;;;;;;;5101551;27;61778;-74
2022/05/02 11:05:24;;;;;;;;;20.25;18.00;;;;;;;;5102357;27;61912;-75
2022/05/02 11:07:54;;;;;;;;;19.75;19.75;;;;;;;;5101619;27;62889;-75
2022/05/02 11:10:21;;;;;;;;;20.00;18.00;;;;;;;;5102291;27;62024;-75
2022/05/02 11:12:52;;;;;;;;;18.25;16.00;;;;;;;;5102835;27;62178;-75
2022/05/02 11:15:21;;;;;;;;;19.25;18.00;;;;;;;;5101461;27;62013;-75
2022/05/02 11:18:07;;;;;;;;;19.50;14.75;;;;;;;;5101810;27;61716;-75
2022/05/02 11:20:59;;;;;;;;;21.50;16.00;;;;;;;;5102754;27;61695;-75
2022/05/02 11:23:43;;;;;;;;;13.75;12.25;;;;;;;;5102089;27;61779;-75
2022/05/02 11:26:14;;;;;;;;;19.75;13.75;;;;;;;;5103101;27;61800;-75
2022/05/02 11:28:58;;;;;;;;;19.00;16.00;;;;;;;;5101939;27;61863;-75
2022/05/02 11:31:44;;;;;;;;;20.75;13.75;;;;;;;;5102503;27;61826;-75
2022/05/02 11:34:09;;;;;;;;;20.50;15.75;;;;;;;;5101968;27;61903;-75
2022/05/02 11:36:42;;;;;;;;;17.50;10.75;;;;;;;;5102849;27;61813;-75
2022/05/02 11:39:09;;;;;;;;;15.00;12.75;;;;;;;;5101143;27;61680;-75
2022/05/02 11:41:41;;;;;;;;;16.75;14.75;;;;;;;;5102131;27;61787;-75
2022/05/02 11:44:08;;;;;;;;;15.50;14.50;;;;;;;;5100875;27;61905;-75
2022/05/02 11:46:36;;;;;;;;;17.25;15.00;;;;;;;;5102753;27;61738;-75
2022/05/02 11:49:20;;;;;;;;;16.50;13.50;;;;;;;;5088833;27;61767;-75
2022/05/02 11:51:50;;;;;;;;;17.25;9.50;;;;;;;;5081345;28;62005;-75
2022/05/02 11:54:27;;;;;;;;;19.25;14.50;;;;;;;;5081963;28;61841;-75
2022/05/02 11:56:58;;;;;;;;;15.75;13.50;;;;;;;;5081871;28;61972;-75
2022/05/02 11:59:31;;;;;;;;;17.50;12.25;;;;;;;;5083484;27;61832;-75
2022/05/02 12:02:01;;;;;;;;;17.50;14.25;;;;;;;;5102213;27;61809;-75
2022/05/02 12:04:29;;;;;;;;;13.75;11.25;;;;;;;;5082558;27;62045;-75
2022/05/02 12:07:05;;;;;;;;;15.00;13.25;;;;;;;;5087395;27;61824;-75
2022/05/02 12:09:32;;;;;;;;;14.00;11.25;;;;;;;;5103879;27;61781;-75
2022/05/02 12:11:59;;;;;;;;;14.00;11.75;;;;;;;;5105731;27;61875;-75
2022/05/02 12:14:25;;;;;;;;;17.75;12.00;;;;;;;;5105550;27;61814;-75
2022/05/02 12:17:26;;;;;;;;;13.25;12.75;;;;;;;;5104115;27;62162;-75
2022/05/02 12:19:51;;;;;;;;;18.25;11.75;;;;;;;;5081309;28;61844;-75
2022/05/02 12:22:22;;;;;;;;;10.75;10.75;;;;;;;;5064815;28;61882;-75
2022/05/02 12:24:48;;;;;;;;;12.25;11.50;;;;;;;;5082352;28;61808;-75
2022/05/02 12:27:14;;;;;;;;;13.50;12.00;;;;;;;;5082503;28;61859;-75
2022/05/02 12:29:42;;;;;;;;;15.75;11.00;;;;;;;;5081638;28;62496;-75
2022/05/02 12:32:08;;;;;;;;;11.00;9.25;;;;;;;;5082483;28;62248;-75
2022/05/02 12:34:41;;;;;;;;;10.75;8.00;;;;;;;;5081747;27;62040;-75
2022/05/02 12:37:14;;;;;;;;;15.25;13.00;;;;;;;;5082209;28;62075;-75
2022/05/02 12:39:50;;;;;;;;;17.00;10.25;;;;;;;;5080899;28;62493;-75
2022/05/02 12:42:17;;;;;;;;;10.75;10.75;;;;;;;;5082358;28;61894;-75
2022/05/02 12:44:52;;;;;;;;;9.50;8.00;;;;;;;;5064793;28;62027;-75
2022/05/02 12:47:22;;;;;;;;;10.00;10.00;;;;;;;;5082555;28;61990;-75
2022/05/02 12:50:12;;;;;;;;;15.50;11.25;;;;;;;;5080425;28;62691;-75
2022/05/02 12:52:48;;;;;;;;;12.00;10.33;;;;;;;;5082049;28;62237;-75
2022/05/02 12:55:14;;;;;;;;;9.00;9.00;;;;;;;;5103473;27;61785;-75
2022/05/02 13:00:42;;;;;;;;;14.00;11.33;;;;;;;;5104323;27;62304;-75
2022/05/02 13:03:10;;;;;;;;;15.50;12.00;;;;;;;;5104579;27;62637;-75
2022/05/02 13:05:38;;;;;;;;;12.75;11.75;;;;;;;;5104208;27;62710;-75
2022/05/02 13:08:19;;;;;;;;;14.25;10.00;;;;;;;;5104489;27;61686;-75
2022/05/02 13:10:45;;;;;;;;;9.50;9.50;;;;;;;;5103719;27;61846;-75
2022/05/02 13:13:11;;;;;;;;;18.00;12.33;;;;;;;;5104802;27;61797;-75
2022/05/02 13:15:37;;;;;;;;;17.67;13.33;;;;;;;;5104406;27;61890;-76
2022/05/02 13:18:07;;;;;;;;;9.33;9.00;;;;;;;;5104510;27;62217;-75
2022/05/02 13:20:32;;;;;;;;;10.33;10.33;;;;;;;;5102102;27;63585;-75
2022/05/02 13:22:59;;;;;;;;;14.00;11.00;;;;;;;;5104197;27;62059;-75
2022/05/02 13:25:43;;;;;;;;;8.00;7.67;;;;;;;;5103254;27;61747;-75
2022/05/02 13:28:10;;;;;;;;;10.33;8.67;;;;;;;;5104327;27;62088;-75
2022/05/02 13:30:35;;;;;;;;;13.00;10.00;;;;;;;;5104124;27;62848;-75
2022/05/02 13:33:06;;;;;;;;;14.33;11.00;;;;;;;;5103399;27;61828;-74
2022/05/02 13:35:35;;;;;;;;;16.33;12.33;;;;;;;;5104162;27;61881;-75
2022/05/02 13:38:10;;;;;;;;;9.67;9.67;;;;;;;;5103752;27;61755;-75
2022/05/02 13:41:03;;;;;;;;;11.33;10.67;;;;;;;;5103588;27;62368;-75
2022/05/02 13:43:37;;;;;;;;;13.33;10.33;;;;;;;;5100931;27;61952;-75
2022/05/02 13:46:22;;;;;;;;;8.00;8.00;;;;;;;;5104313;27;61962;-75
2022/05/02 13:48:55;;;;;;;;;11.67;9.33;;;;;;;;5102033;27;62071;-75
2022/05/02 13:51:29;;;;;;;;;9.67;8.67;;;;;;;;5103361;27;61842;-75
2022/05/02 13:54:00;;;;;;;;;9.67;8.67;;;;;;;;5102223;27;61895;-75
2022/05/02 13:56:44;;;;;;;;;12.33;11.67;;;;;;;;5102704;27;61964;-75
2022/05/02 13:59:09;;;;;;;;;11.00;10.00;;;;;;;;5102629;27;62125;-75
2022/05/02 14:01:53;;;;;;;;;13.00;11.75;;;;;;;;5103125;27;61771;-75
2022/05/02 14:05:10;;;;;;;;;13.75;12.00;;;;;;;;5102738;27;62375;-75
2022/05/02 14:07:12;;;;;;;;;12.00;9.67;;;;;;;;5097866;27;61767;-75
2022/05/02 14:09:41;;;;;;;;;8.00;7.00;;;;;;;;5103624;27;61854;-75
2022/05/02 14:12:10;;;;;;;;;11.00;9.00;;;;;;;;5102973;27;61779;-75
2022/05/02 14:14:52;;;;;;;;;10.75;8.75;;;;;;;;5103689;27;62028;-75
2022/05/02 14:17:35;;;;;;;;;11.75;11.50;;;;;;;;5102750;27;61680;-75
2022/05/02 14:20:28;;;;;;;;;6.50;6.25;;;;;;;;5103625;27;62899;-75
2022/05/02 14:23:04;;;;;;;;;14.00;10.00;;;;;;;;5102932;27;61822;-75
2022/05/02 14:25:36;;;;;;;;;9.75;7.00;;;;;;;;5103253;27;61679;-75
2022/05/02 14:28:01;;;;;;;;;11.50;10.50;;;;;;;;5102120;27;61805;-75
2022/05/02 14:30:27;;;;;;;;;12.25;10.00;;;;;;;;5101628;27;61797;-75
2022/05/02 14:32:54;;;;;;;;;9.50;8.75;;;;;;;;5102279;27;62108;-75
2022/05/02 14:35:27;;;;;;;;;11.50;9.50;;;;;;;;5102973;27;61755;-75
2022/05/02 14:37:53;;;;;;;;;13.25;11.75;;;;;;;;5101519;27;61796;-75
2022/05/02 14:40:19;;;;;;;;;11.00;8.25;;;;;;;;5103286;27;61761;-75
2022/05/02 14:42:44;;;;;;;;;11.75;10.75;;;;;;;;5101396;27;63903;-75
2022/05/02 14:45:11;;;;;;;;;9.00;9.00;;;;;;;;5102710;27;62004;-75
2022/05/02 14:47:37;;;;;;;;;12.25;10.75;;;;;;;;5103040;27;61906;-75
2022/05/02 14:50:03;;;;;;;;;11.50;10.50;;;;;;;;5100703;27;61896;-75
2022/05/02 14:52:31;;;;;;;;;9.00;8.75;;;;;;;;5101290;27;64906;-75
2022/05/02 14:54:58;;;;;;;;;9.75;7.25;;;;;;;;5103062;27;61943;-75
2022/05/02 14:57:25;;;;;;;;;12.25;11.00;;;;;;;;5102767;27;61781;-75
2022/05/02 14:59:54;;;;;;;;;10.25;9.25;;;;;;;;5103448;27;62001;-75
2022/05/02 15:02:21;;;;;;;;;11.25;11.00;;;;;;;;5100418;27;65080;-75
2022/05/02 15:04:48;;;;;;;;;8.00;5.75;;;;;;;;5102405;27;61817;-75